createdAt,value
2017-11-07T00:01:07.211Z,5.97
2017-11-07T00:03:33.566Z,5.10
2017-11-07T00:06:00.665Z,5.40
2017-11-07T00:08:26.989Z,4.93
2017-11-07T00:10:53.284Z,5.07
2017-11-07T00:13:20.322Z,5.30
2017-11-07T00:15:46.738Z,4.87
2017-11-07T00:18:13.045Z,5.33
2017-11-07T00:20:39.369Z,5.03
2017-11-07T00:23:05.667Z,5.73
2017-11-07T00:25:31.982Z,5.50
2017-11-07T00:27:58.305Z,5.07
2017-11-07T00:30:25.407Z,5.17
2017-11-07T00:32:51.709Z,5.20
2017-11-07T00:35:18.266Z,4.30
2017-11-07T00:37:44.550Z,4.23
2017-11-07T00:40:10.863Z,4.70
2017-11-07T00:42:37.188Z,4.27
2017-11-07T00:45:03.487Z,3.57
2017-11-07T00:47:29.809Z,3.83
2017-11-07T00:49:56.098Z,4.27
2017-11-07T00:52:22.449Z,4.00
2017-11-07T00:54:49.491Z,4.07
2017-11-07T00:57:16.540Z,3.93
2017-11-07T00:59:42.856Z,4.03
2017-11-07T01:02:09.224Z,4.00
2017-11-07T01:04:35.518Z,4.10
2017-11-07T01:07:02.570Z,5.40
2017-11-07T01:09:29.610Z,4.13
2017-11-07T01:11:55.956Z,5.40
2017-11-07T01:14:22.270Z,3.93
2017-11-07T01:16:48.565Z,4.30
2017-11-07T01:19:14.876Z,4.60
2017-11-07T01:21:41.176Z,4.00
2017-11-07T01:24:08.226Z,4.33
2017-11-07T01:26:34.551Z,4.27
2017-11-07T01:29:01.591Z,4.33
2017-11-07T01:31:28.658Z,4.57
2017-11-07T01:33:54.991Z,4.30
2017-11-07T01:36:21.338Z,4.40
2017-11-07T01:38:47.665Z,3.77
2017-11-07T01:41:13.986Z,3.90
2017-11-07T01:43:40.354Z,3.80
2017-11-07T01:46:06.676Z,3.63
2017-11-07T01:48:32.982Z,3.67
2017-11-07T01:50:59.299Z,3.57
2017-11-07T01:53:25.602Z,3.40
2017-11-07T01:55:52.674Z,3.63
2017-11-07T01:58:19.034Z,3.80
2017-11-07T02:00:45.350Z,3.40
2017-11-07T02:03:11.719Z,3.40
2017-11-07T02:05:38.044Z,3.20
2017-11-07T02:08:04.369Z,3.03
2017-11-07T02:10:31.134Z,3.23
2017-11-07T02:12:57.698Z,3.20
2017-11-07T02:15:24.239Z,3.60
2017-11-07T02:17:50.575Z,3.30
2017-11-07T02:20:16.893Z,3.57
2017-11-07T02:22:43.224Z,3.50
2017-11-07T02:25:10.293Z,3.10
2017-11-07T02:27:36.605Z,3.03
2017-11-07T02:30:02.946Z,3.30
2017-11-07T02:32:29.303Z,3.40
2017-11-07T02:34:55.625Z,2.80
2017-11-07T02:37:21.965Z,2.80
2017-11-07T02:39:48.306Z,2.83
2017-11-07T02:42:14.622Z,2.20
2017-11-07T02:44:40.938Z,2.40
2017-11-07T02:47:07.297Z,2.00
2017-11-07T02:49:33.605Z,2.47
2017-11-07T02:51:59.948Z,2.63
2017-11-07T02:54:26.280Z,2.50
2017-11-07T02:56:52.613Z,2.70
2017-11-07T02:59:19.063Z,2.60
2017-11-07T03:01:45.369Z,2.70
2017-11-07T03:04:11.662Z,2.50
2017-11-07T03:06:37.982Z,2.70
2017-11-07T03:09:04.307Z,2.60
2017-11-07T03:11:31.625Z,3.70
2017-11-07T03:13:57.945Z,2.73
2017-11-07T03:16:24.825Z,2.53
2017-11-07T03:18:52.006Z,2.90
2017-11-07T03:21:18.290Z,3.63
2017-11-07T03:23:44.620Z,3.53
2017-11-07T03:26:10.920Z,3.17
2017-11-07T03:28:37.210Z,3.07
2017-11-07T03:31:04.255Z,3.13
2017-11-07T03:33:31.288Z,3.03
2017-11-07T03:35:57.569Z,2.60
2017-11-07T03:38:23.868Z,2.90
2017-11-07T03:40:50.895Z,2.80
2017-11-07T03:43:17.205Z,2.37
2017-11-07T03:45:43.516Z,2.60
2017-11-07T03:48:09.856Z,3.03
2017-11-07T03:50:36.148Z,2.43
2017-11-07T03:53:02.454Z,2.83
2017-11-07T03:55:29.508Z,2.83
2017-11-07T03:57:56.541Z,3.27
2017-11-07T04:00:22.845Z,2.73
2017-11-07T04:02:49.153Z,2.80
2017-11-07T04:05:15.471Z,3.27
2017-11-07T04:07:42.624Z,3.17
2017-11-07T04:10:09.029Z,2.97
2017-11-07T04:12:36.047Z,3.30
2017-11-07T04:15:02.387Z,2.90
2017-11-07T04:17:29.423Z,3.23
2017-11-07T04:19:55.733Z,3.40
2017-11-07T04:22:22.050Z,3.83
2017-11-07T04:24:48.339Z,3.87
2017-11-07T04:27:15.371Z,2.80
2017-11-07T04:29:41.687Z,3.57
2017-11-07T04:32:07.994Z,3.30
2017-11-07T04:34:34.494Z,2.63
2017-11-07T04:37:00.853Z,3.00
2017-11-07T04:39:27.178Z,2.83
2017-11-07T04:41:53.528Z,2.90
2017-11-07T04:44:19.821Z,2.60
2017-11-07T04:46:46.165Z,2.70
2017-11-07T04:49:12.464Z,2.53
2017-11-07T04:51:39.511Z,2.40
2017-11-07T04:54:05.816Z,2.47
2017-11-07T04:56:32.119Z,2.47
2017-11-07T04:58:58.411Z,2.50
2017-11-07T05:01:24.694Z,2.53
2017-11-07T05:03:51.012Z,2.00
2017-11-07T05:06:17.303Z,2.23
2017-11-07T05:08:43.597Z,2.67
2017-11-07T05:11:09.908Z,2.67
2017-11-07T05:13:36.213Z,2.63
2017-11-07T05:16:02.534Z,2.57
2017-11-07T05:18:28.861Z,3.00
2017-11-07T05:20:55.168Z,3.20
2017-11-07T05:23:21.484Z,3.00
2017-11-07T05:25:48.518Z,2.70
2017-11-07T05:28:14.828Z,3.10
2017-11-07T05:30:41.136Z,3.50
2017-11-07T05:33:07.443Z,3.13
2017-11-07T05:35:33.750Z,3.53
2017-11-07T05:38:00.100Z,3.17
2017-11-07T05:40:26.424Z,2.93
2017-11-07T05:42:52.754Z,3.23
2017-11-07T05:45:19.794Z,3.57
2017-11-07T05:47:46.861Z,2.90
2017-11-07T05:50:13.182Z,3.07
2017-11-07T05:52:39.516Z,3.20
2017-11-07T05:55:05.857Z,2.80
2017-11-07T05:57:32.164Z,2.60
2017-11-07T05:59:59.224Z,2.80
2017-11-07T06:02:25.549Z,2.90
2017-11-07T06:04:52.562Z,3.63
2017-11-07T06:07:18.859Z,2.70
2017-11-07T06:09:45.173Z,2.90
2017-11-07T06:12:11.493Z,3.30
2017-11-07T06:14:37.807Z,3.27
2017-11-07T06:17:04.830Z,3.20
2017-11-07T06:19:31.150Z,2.70
2017-11-07T06:21:57.462Z,2.80
2017-11-07T06:24:23.780Z,2.97
2017-11-07T06:26:50.120Z,3.33
2017-11-07T06:29:16.446Z,2.70
2017-11-07T06:31:43.624Z,2.37
2017-11-07T06:34:09.992Z,2.70
2017-11-07T06:36:36.425Z,2.60
2017-11-07T06:39:02.813Z,2.40
2017-11-07T06:41:29.156Z,2.60
2017-11-07T06:43:55.492Z,2.90
2017-11-07T06:46:21.888Z,2.80
2017-11-07T06:48:48.274Z,3.10
2017-11-07T06:51:15.348Z,2.80
2017-11-07T06:53:41.682Z,2.83
2017-11-07T06:56:08.025Z,2.67
2017-11-07T06:58:34.422Z,2.90
2017-11-07T07:01:00.799Z,3.00
2017-11-07T07:03:27.157Z,2.80
2017-11-07T07:05:54.500Z,3.10
2017-11-07T07:08:20.899Z,2.83
2017-11-07T07:10:47.294Z,3.00
2017-11-07T07:13:13.713Z,3.43
2017-11-07T07:15:40.783Z,2.97
2017-11-07T07:18:07.155Z,2.80
2017-11-07T07:20:33.455Z,3.07
2017-11-07T07:22:59.803Z,2.77
2017-11-07T07:25:26.135Z,2.63
2017-11-07T07:27:52.491Z,2.83
2017-11-07T07:30:18.818Z,2.37
2017-11-07T07:32:45.124Z,2.57
2017-11-07T07:35:11.437Z,3.10
2017-11-07T07:37:38.007Z,3.43
2017-11-07T07:40:04.364Z,3.70
2017-11-07T07:42:30.705Z,3.30
2017-11-07T07:44:57.012Z,3.00
2017-11-07T07:47:23.372Z,3.50
2017-11-07T07:49:49.717Z,4.93
2017-11-07T07:52:16.054Z,9.00
2017-11-07T07:54:42.354Z,22.73
2017-11-07T07:57:08.678Z,9.23
2017-11-07T07:59:35.162Z,4.50
2017-11-07T08:02:01.474Z,3.13
2017-11-07T08:04:27.829Z,3.00
2017-11-07T08:06:54.166Z,3.20
2017-11-07T08:09:20.574Z,3.17
2017-11-07T08:11:46.933Z,3.50
2017-11-07T08:14:13.305Z,3.23
2017-11-07T08:16:40.396Z,3.60
2017-11-07T08:19:06.718Z,4.43
2017-11-07T08:21:33.055Z,4.90
2017-11-07T08:23:59.388Z,4.43
2017-11-07T08:26:25.707Z,3.70
2017-11-07T08:28:52.069Z,4.27
2017-11-07T08:31:18.382Z,3.43
2017-11-07T08:33:44.688Z,3.90
2017-11-07T08:36:10.998Z,3.80
2017-11-07T08:38:37.305Z,3.73
2017-11-07T08:41:03.651Z,3.40
2017-11-07T08:43:30.710Z,3.93
2017-11-07T08:45:57.793Z,3.53
2017-11-07T08:48:24.120Z,3.60
2017-11-07T08:50:50.432Z,3.57
2017-11-07T08:53:16.754Z,4.50
2017-11-07T08:55:43.078Z,4.63
2017-11-07T08:58:10.139Z,5.47
2017-11-07T09:00:36.475Z,5.10
2017-11-07T09:03:02.826Z,5.07
2017-11-07T09:05:29.147Z,4.93
2017-11-07T09:07:55.504Z,5.47
2017-11-07T09:10:21.861Z,5.03
2017-11-07T09:12:48.969Z,6.53
2017-11-07T09:15:15.336Z,6.00
2017-11-07T09:17:41.677Z,6.77
2017-11-07T09:20:08.778Z,6.27
2017-11-07T09:22:35.113Z,5.40
2017-11-07T09:25:01.437Z,6.70
2017-11-07T09:27:27.753Z,6.10
2017-11-07T09:29:54.065Z,6.47
2017-11-07T09:32:21.113Z,5.77
2017-11-07T09:34:48.187Z,6.50
2017-11-07T09:37:14.518Z,6.33
2017-11-07T09:39:40.851Z,7.27
2017-11-07T09:42:07.158Z,6.37
2017-11-07T09:44:33.493Z,7.73
2017-11-07T09:46:59.822Z,6.47
2017-11-07T09:49:26.134Z,7.60
2017-11-07T09:51:53.216Z,9.33
2017-11-07T09:54:19.530Z,9.30
2017-11-07T09:56:45.862Z,10.77
2017-11-07T09:59:12.169Z,12.70
2017-11-07T10:01:39.244Z,10.60
2017-11-07T10:04:05.581Z,11.13
2017-11-07T10:06:31.904Z,11.43
2017-11-07T10:08:58.215Z,12.80
2017-11-07T10:11:25.302Z,11.37
2017-11-07T10:13:51.642Z,11.27
2017-11-07T10:16:17.929Z,12.20
2017-11-07T10:18:44.272Z,11.70
2017-11-07T10:21:10.622Z,10.03
2017-11-07T10:23:36.966Z,10.70
2017-11-07T10:26:03.317Z,11.97
2017-11-07T10:28:29.667Z,11.70
2017-11-07T10:30:56.753Z,11.33
2017-11-07T10:33:23.147Z,11.80
2017-11-07T10:35:49.480Z,10.00
2017-11-07T10:38:15.850Z,10.57
2017-11-07T10:40:42.189Z,10.67
2017-11-07T10:43:08.521Z,10.67
2017-11-07T10:45:34.865Z,8.60
2017-11-07T10:48:02.722Z,7.87
2017-11-07T10:50:29.040Z,7.60
2017-11-07T10:52:55.373Z,8.93
2017-11-07T10:55:22.559Z,10.33
2017-11-07T10:57:49.670Z,8.57
2017-11-07T11:00:16.033Z,10.47
2017-11-07T11:02:42.374Z,10.17
2017-11-07T11:05:08.757Z,8.97
2017-11-07T11:07:35.086Z,6.60
2017-11-07T11:10:01.397Z,7.40
2017-11-07T11:12:27.694Z,7.33
2017-11-07T11:14:54.032Z,10.70
2017-11-07T11:17:21.102Z,11.30
2017-11-07T11:19:48.163Z,10.10
2017-11-07T11:22:14.445Z,10.60
2017-11-07T11:24:40.783Z,10.40
2017-11-07T11:27:07.079Z,9.03
2017-11-07T11:29:33.402Z,8.70
2017-11-07T11:31:59.728Z,8.60
2017-11-07T11:34:26.063Z,8.13
2017-11-07T11:36:52.398Z,7.97
2017-11-07T11:39:18.711Z,8.93
2017-11-07T11:41:45.049Z,7.30
2017-11-07T11:44:11.370Z,8.17
2017-11-07T11:46:37.702Z,8.33
2017-11-07T11:49:04.173Z,6.23
2017-11-07T11:51:31.312Z,6.10
2017-11-07T11:53:57.642Z,6.27
2017-11-07T11:56:23.940Z,5.30
2017-11-07T11:58:50.279Z,6.10
2017-11-07T12:01:16.625Z,6.87
2017-11-07T12:03:42.957Z,6.23
2017-11-07T12:06:09.353Z,6.90
2017-11-07T12:08:35.696Z,7.40
2017-11-07T12:11:02.079Z,7.30
2017-11-07T12:13:29.310Z,7.10
2017-11-07T12:15:55.634Z,7.13
2017-11-07T12:18:21.975Z,8.27
2017-11-07T12:20:48.369Z,7.87
2017-11-07T12:23:14.738Z,7.13
2017-11-07T12:25:41.052Z,6.63
2017-11-07T12:28:07.402Z,6.37
2017-11-07T12:30:33.749Z,6.23
2017-11-07T12:33:00.112Z,5.40
2017-11-07T12:35:26.442Z,5.30
2017-11-07T12:37:52.788Z,6.47
2017-11-07T12:40:19.118Z,5.00
2017-11-07T12:42:45.440Z,5.00
2017-11-07T12:45:11.807Z,4.70
2017-11-07T12:47:38.109Z,4.40
2017-11-07T12:50:16.867Z,3.70
2017-11-07T12:52:43.125Z,3.93
2017-11-07T12:55:10.204Z,4.03
2017-11-07T12:57:36.505Z,3.40
2017-11-07T13:00:02.877Z,3.50
2017-11-07T13:02:29.198Z,4.30
2017-11-07T13:04:55.560Z,3.43
2017-11-07T13:07:21.886Z,3.77
2017-11-07T13:09:48.230Z,4.27
2017-11-07T13:12:14.543Z,3.50
2017-11-07T13:14:40.854Z,3.37
2017-11-07T13:17:07.183Z,3.40
2017-11-07T13:19:33.520Z,3.00
2017-11-07T13:21:59.836Z,2.50
2017-11-07T13:24:26.161Z,2.40
2017-11-07T13:26:52.502Z,2.47
2017-11-07T13:29:18.837Z,2.23
2017-11-07T13:31:45.215Z,2.40
2017-11-07T13:34:11.538Z,3.10
2017-11-07T13:36:37.855Z,2.13
2017-11-07T13:39:04.180Z,2.47
2017-11-07T13:41:30.517Z,2.30
2017-11-07T13:43:56.844Z,2.20
2017-11-07T13:46:23.179Z,2.47
2017-11-07T13:48:49.484Z,2.33
2017-11-07T13:51:15.809Z,2.30
2017-11-07T13:53:42.117Z,2.23
2017-11-07T13:56:08.475Z,2.93
2017-11-07T13:58:34.790Z,2.80
2017-11-07T14:01:01.116Z,3.07
2017-11-07T14:03:27.442Z,2.73
2017-11-07T14:05:53.779Z,2.90
2017-11-07T14:08:20.136Z,3.03
2017-11-07T14:10:46.462Z,3.50
2017-11-07T14:13:12.771Z,2.57
2017-11-07T14:15:39.092Z,2.80
2017-11-07T14:18:05.415Z,2.00
2017-11-07T14:20:31.735Z,1.93
2017-11-07T14:22:58.063Z,1.73
2017-11-07T14:25:25.168Z,1.87
2017-11-07T14:27:52.271Z,1.80
2017-11-07T14:30:18.604Z,1.90
2017-11-07T14:32:45.673Z,2.07
2017-11-07T14:35:11.999Z,1.93
2017-11-07T14:37:38.357Z,1.50
2017-11-07T14:40:04.707Z,1.70
2017-11-07T14:42:31.034Z,1.67
2017-11-07T14:44:58.218Z,1.60
2017-11-07T14:47:24.531Z,1.40
2017-11-07T14:49:51.664Z,1.70
2017-11-07T14:52:17.958Z,1.90
2017-11-07T14:54:44.274Z,1.60
2017-11-07T14:57:10.604Z,1.47
2017-11-07T14:59:37.394Z,1.60
2017-11-07T15:02:03.729Z,1.50
2017-11-07T15:04:31.526Z,2.17
2017-11-07T15:06:57.875Z,2.10
2017-11-07T15:09:24.240Z,2.20
2017-11-07T15:11:50.554Z,2.17
2017-11-07T15:14:16.856Z,1.80
2017-11-07T15:16:43.194Z,2.17
2017-11-07T15:19:09.522Z,2.30
2017-11-07T15:21:35.844Z,2.00
2017-11-07T15:24:02.145Z,2.10
2017-11-07T15:26:28.443Z,2.20
2017-11-07T15:28:54.755Z,2.60
2017-11-07T15:31:21.057Z,2.10
2017-11-07T15:33:47.408Z,2.40
2017-11-07T15:36:13.743Z,2.13
2017-11-07T15:38:40.064Z,2.07
2017-11-07T15:41:06.365Z,1.73
2017-11-07T15:43:33.428Z,2.30
2017-11-07T15:46:00.461Z,2.20
2017-11-07T15:48:27.533Z,2.00
2017-11-07T15:50:53.850Z,2.47
2017-11-07T15:53:20.887Z,2.20
2017-11-07T15:55:47.928Z,3.13
2017-11-07T15:58:14.974Z,2.40
2017-11-07T16:00:42.018Z,2.77
2017-11-07T16:03:08.321Z,3.27
2017-11-07T16:05:34.601Z,3.40
2017-11-07T16:08:00.918Z,3.07
2017-11-07T16:10:27.971Z,2.93
2017-11-07T16:12:54.299Z,2.83
2017-11-07T16:15:21.331Z,2.53
2017-11-07T16:17:47.630Z,2.80
2017-11-07T16:20:13.940Z,2.67
2017-11-07T16:22:40.241Z,2.90
2017-11-07T16:25:06.564Z,3.20
2017-11-07T16:27:33.589Z,3.07
2017-11-07T16:29:59.903Z,3.10
2017-11-07T16:32:26.229Z,2.70
2017-11-07T16:34:52.542Z,3.27
2017-11-07T16:37:18.884Z,3.20
2017-11-07T16:39:45.245Z,2.90
2017-11-07T16:42:11.547Z,2.90
2017-11-07T16:44:38.038Z,3.50
2017-11-07T16:47:04.358Z,3.53
2017-11-07T16:49:30.684Z,3.50
2017-11-07T16:51:57.716Z,3.00
2017-11-07T16:54:24.038Z,2.97
2017-11-07T16:56:50.375Z,4.43
2017-11-07T16:59:16.663Z,3.63
2017-11-07T17:01:42.989Z,3.73
2017-11-07T17:04:09.298Z,3.30
2017-11-07T17:06:35.621Z,3.20
2017-11-07T17:09:01.948Z,3.00
2017-11-07T17:11:28.282Z,3.37
2017-11-07T17:13:54.599Z,3.33
2017-11-07T17:16:21.671Z,4.03
2017-11-07T17:18:47.975Z,3.30
2017-11-07T17:21:15.052Z,3.53
2017-11-07T17:23:41.590Z,4.30
2017-11-07T17:26:07.912Z,3.90
2017-11-07T17:28:34.228Z,3.97
2017-11-07T17:31:01.282Z,3.30
2017-11-07T17:33:27.673Z,3.37
2017-11-07T17:35:53.987Z,3.40
2017-11-07T17:38:20.377Z,3.47
2017-11-07T17:40:46.787Z,3.57
2017-11-07T17:43:13.912Z,3.03
2017-11-07T17:45:40.980Z,3.77
2017-11-07T17:48:07.500Z,3.60
2017-11-07T17:50:33.830Z,3.10
2017-11-07T17:53:00.153Z,4.10
2017-11-07T17:55:26.425Z,3.60
2017-11-07T17:57:52.717Z,3.83
2017-11-07T18:00:19.098Z,3.50
2017-11-07T18:02:45.841Z,4.83
2017-11-07T18:05:12.344Z,5.13
2017-11-07T18:07:39.398Z,5.40
2017-11-07T18:10:05.841Z,3.97
2017-11-07T18:12:33.707Z,3.90
2017-11-07T18:15:00.027Z,4.60
2017-11-07T18:17:27.081Z,5.37
2017-11-07T18:19:53.507Z,6.50
2017-11-07T18:22:20.526Z,4.27
2017-11-07T18:24:46.896Z,4.83
2017-11-07T18:27:13.390Z,5.87
2017-11-07T18:29:40.054Z,4.63
2017-11-07T18:32:06.524Z,4.47
2017-11-07T18:34:32.866Z,4.90
2017-11-07T18:36:59.191Z,4.67
2017-11-07T18:39:25.517Z,4.00
2017-11-07T18:41:51.812Z,4.00
2017-11-07T18:44:18.866Z,3.90
2017-11-07T18:46:45.915Z,4.70
2017-11-07T18:49:12.957Z,3.83
2017-11-07T18:51:39.998Z,4.70
2017-11-07T18:54:07.025Z,7.80
2017-11-07T18:56:33.342Z,8.07
2017-11-07T18:58:59.662Z,9.20
2017-11-07T19:01:25.977Z,7.40
2017-11-07T19:03:52.316Z,5.10
2017-11-07T19:06:18.634Z,4.30
2017-11-07T19:08:44.992Z,3.90
2017-11-07T19:11:12.254Z,3.70
2017-11-07T19:13:39.714Z,4.63
2017-11-07T19:16:07.208Z,4.37
2017-11-07T19:18:33.641Z,4.50
2017-11-07T19:20:59.980Z,3.93
2017-11-07T19:23:26.448Z,4.80
2017-11-07T19:25:54.291Z,4.90
2017-11-07T19:28:20.705Z,4.57
2017-11-07T19:30:47.064Z,5.90
2017-11-07T19:33:13.447Z,5.10
2017-11-07T19:35:39.833Z,5.53
2017-11-07T19:38:06.187Z,5.97
2017-11-07T19:40:32.929Z,8.30
2017-11-07T19:43:00.340Z,6.57
2017-11-07T19:45:26.749Z,6.30
2017-11-07T19:47:53.133Z,6.30
2017-11-07T19:50:19.528Z,6.93
2017-11-07T19:52:45.855Z,5.80
2017-11-07T19:55:12.177Z,5.87
2017-11-07T19:57:39.228Z,6.93
2017-11-07T20:00:05.613Z,8.20
2017-11-07T20:02:32.045Z,5.63
2017-11-07T20:04:58.365Z,7.00
2017-11-07T20:07:24.744Z,6.03
2017-11-07T20:09:51.785Z,5.30
2017-11-07T20:12:18.833Z,5.63
2017-11-07T20:14:45.163Z,5.90
2017-11-07T20:17:12.284Z,6.47
2017-11-07T20:19:38.705Z,6.90
2017-11-07T20:22:05.123Z,5.53
2017-11-07T20:24:31.539Z,6.30
2017-11-07T20:26:57.882Z,5.50
2017-11-07T20:29:24.250Z,5.77
2017-11-07T20:31:51.347Z,5.50
2017-11-07T20:34:17.700Z,5.50
2017-11-07T20:36:44.079Z,5.90
2017-11-07T20:39:11.400Z,6.50
2017-11-07T20:41:38.502Z,5.50
2017-11-07T20:44:04.839Z,5.07
2017-11-07T20:46:31.180Z,5.60
2017-11-07T20:48:57.484Z,6.70
2017-11-07T20:51:23.831Z,5.50
2017-11-07T20:53:50.245Z,4.90
2017-11-07T20:56:16.574Z,5.77
2017-11-07T20:58:43.653Z,5.90
2017-11-07T21:01:10.015Z,6.57
2017-11-07T21:03:36.412Z,5.90
2017-11-07T21:06:02.769Z,5.53
2017-11-07T21:08:29.862Z,5.40
2017-11-07T21:10:56.185Z,5.80
2017-11-07T21:13:23.245Z,5.43
2017-11-07T21:15:49.577Z,5.83
2017-11-07T21:18:15.899Z,6.27
2017-11-07T21:20:45.099Z,6.20
2017-11-07T21:23:11.428Z,5.80
2017-11-07T21:25:38.481Z,5.90
2017-11-07T21:28:04.807Z,6.10
2017-11-07T21:30:31.841Z,5.97
2017-11-07T21:32:58.909Z,6.30
2017-11-07T21:35:25.242Z,5.80
2017-11-07T21:37:51.565Z,6.30
2017-11-07T21:40:18.846Z,6.83
2017-11-07T21:42:45.205Z,6.10
2017-11-07T21:45:12.326Z,5.60
2017-11-07T21:47:38.614Z,6.13
2017-11-07T21:50:05.689Z,6.70
2017-11-07T21:52:32.020Z,5.77
2017-11-07T21:54:58.340Z,5.90
2017-11-07T21:57:24.634Z,6.40
2017-11-07T21:59:50.935Z,5.97
2017-11-07T22:02:17.255Z,5.63
2017-11-07T22:04:43.591Z,6.03
2017-11-07T22:07:09.882Z,6.00
2017-11-07T22:09:36.205Z,5.70
2017-11-07T22:12:03.376Z,5.53
2017-11-07T22:14:29.704Z,6.20
2017-11-07T22:16:56.017Z,6.07
2017-11-07T22:19:23.063Z,5.30
2017-11-07T22:21:50.137Z,5.00
2017-11-07T22:24:16.453Z,6.57
2017-11-07T22:26:42.774Z,5.30
2017-11-07T22:29:09.115Z,5.67
2017-11-07T22:31:35.439Z,5.37
2017-11-07T22:34:01.823Z,5.77
2017-11-07T22:36:28.150Z,6.13
2017-11-07T22:38:54.434Z,5.63
2017-11-07T22:41:20.744Z,5.33
2017-11-07T22:43:47.784Z,6.30
2017-11-07T22:46:14.866Z,5.87
2017-11-07T22:48:41.181Z,5.87
2017-11-07T22:51:08.227Z,6.13
2017-11-07T22:53:34.549Z,5.80
2017-11-07T22:56:01.590Z,6.27
2017-11-07T22:58:28.659Z,6.50
2017-11-07T23:00:54.983Z,5.33
2017-11-07T23:03:21.306Z,5.50
2017-11-07T23:05:48.339Z,5.43
2017-11-07T23:08:14.642Z,5.63
2017-11-07T23:10:40.943Z,5.80
2017-11-07T23:13:07.280Z,5.60
2017-11-07T23:15:33.595Z,6.27
2017-11-07T23:17:59.972Z,5.30
2017-11-07T23:20:26.278Z,6.00
2017-11-07T23:22:52.582Z,5.90
2017-11-07T23:25:18.903Z,5.70
2017-11-07T23:27:45.939Z,6.20
2017-11-07T23:30:12.279Z,6.10
2017-11-07T23:32:38.610Z,5.80
2017-11-07T23:35:05.668Z,6.07
2017-11-07T23:37:32.009Z,6.47
2017-11-07T23:39:58.323Z,5.73
2017-11-07T23:42:24.655Z,6.57
2017-11-07T23:44:50.985Z,6.50
2017-11-07T23:47:18.085Z,7.33
2017-11-07T23:49:44.400Z,6.90
2017-11-07T23:52:10.702Z,6.80
2017-11-07T23:54:37.030Z,6.97
2017-11-07T23:57:03.354Z,6.53
2017-11-07T23:59:30.435Z,7.03
